• Join FlightAware (Why Join?)
  • Login
  • US Flag 
12:20PM EDT


 

Airport Tracker/Info


-or-


 

Live Flight TrackerFlight Track Log ✈ TAM3252 ✈ 12-Sep-2013 ✈ SBSP / CGH - SBGL / GIG

Flight Track Log - Related Links

Times and Time Zones

All times are in EDT time to prevent confusion due to time zone crossing. See the TAM3252 flight status page for this flight to view local times or setup timezone preferences in your user account.

Time Position Orientation Groundspeed Altitude Reporting Facility
EDT Latitude Longitude Course Direction KTS MPH feet Rate Location/Type
06:39AM -23.1206 -44.5035 76° East  Level Estimated
06:40AM -23.1053 -44.4404 75° East  Level Estimated
06:41AM -23.0899 -44.3774 75° East  Level Estimated
06:42AM -23.0746 -44.3144 75° East  Level Estimated
06:43AM -23.0592 -44.2514 75° East  Level Estimated
06:44AM -23.0437 -44.1884 75° East  Level Estimated
06:45AM -23.0283 -44.1255 75° East  Level Estimated
06:46AM -23.0128 -44.0625 75° East  Level Estimated
06:47AM -22.9973 -43.9996 75° East  Level Estimated
06:48AM -22.9818 -43.9366 75° East  Level Estimated
06:49AM -22.9662 -43.8737 75° East  Level Estimated
06:50AM -22.9506 -43.8108 75° East  Level Estimated
06:51AM -22.9350 -43.7480 75° East  Level Estimated
06:52AM -22.9194 -43.6851 75° East  Level Estimated
06:53AM -22.9038 -43.6222 75° East  Level Estimated
06:54AM -22.8881 -43.5594 75° East  Level Estimated
06:55AM -22.8724 -43.4966 75° East  Level Estimated
06:56AM -22.8567 -43.4338 75° East  Level Estimated
06:57AM -22.8409 -43.3710 75° East  Level Estimated
06:58AM -22.8251 -43.3082 75° East  Level Estimated
06:59AM -22.8093 -43.2454 75° East  Level Estimated
07:00AM -22.8089 -43.2436 75° East  Level Estimated
07:01AM -22.8089 -43.2436 137° Southeast  Level Estimated
07:02AM -22.8089 -43.2436 137° Southeast  Level Estimated
07:03AM -22.8089 -43.2436 137° Southeast  Level Estimated
07:04AM -22.8089 -43.2436 137° Southeast  Level Estimated
07:05AM -22.8089 -43.2436 137° Southeast  Level Estimated
07:06AM -22.8089 -43.2436 137° Southeast  Level Estimated
07:07AM -22.8089 -43.2436 137° Southeast  Level Estimated
07:08AM -22.8089 -43.2436 137° Southeast  Level Estimated
07:09AM -22.8089 -43.2436 137° Southeast  Level Estimated
07:10AM -22.8089 -43.2436 137° Southeast  Level Estimated
07:11AM -22.8089 -43.2436 137° Southeast  Level Estimated
07:12AM -22.8089 -43.2436 137° Southeast  Level Estimated
07:13AM -22.8089 -43.2436 137° Southeast  Level Estimated
07:14AM -22.8089 -43.2436 137° Southeast  Level Estimated
07:15AM -22.8089 -43.2436 137° Southeast  Level Estimated